sensor_id;sensor_type;location;lat;lon;timestamp;P1;durP1;ratioP1;P2;durP2;ratioP2
23123;SDS011;11731;48.592;8.858;2022-09-24T00:00:42;8.20;;;5.70;;
23123;SDS011;11731;48.592;8.858;2022-09-24T00:08:48;8.80;;;6.47;;
23123;SDS011;11731;48.592;8.858;2022-09-24T00:11:17;8.23;;;7.10;;
23123;SDS011;11731;48.592;8.858;2022-09-24T00:13:47;9.37;;;7.43;;
23123;SDS011;11731;48.592;8.858;2022-09-24T00:16:15;9.20;;;6.93;;
23123;SDS011;11731;48.592;8.858;2022-09-24T00:19:45;8.60;;;7.30;;
23123;SDS011;11731;48.592;8.858;2022-09-24T00:22:08;7.90;;;7.10;;
23123;SDS011;11731;48.592;8.858;2022-09-24T00:24:35;7.17;;;6.47;;
23123;SDS011;11731;48.592;8.858;2022-09-24T00:27:19;6.87;;;6.17;;
23123;SDS011;11731;48.592;8.858;2022-09-24T00:29:47;7.73;;;5.80;;
23123;SDS011;11731;48.592;8.858;2022-09-24T00:32:14;9.90;;;6.57;;
23123;SDS011;11731;48.592;8.858;2022-09-24T00:34:47;8.57;;;6.60;;
23123;SDS011;11731;48.592;8.858;2022-09-24T00:37:17;8.97;;;7.30;;
23123;SDS011;11731;48.592;8.858;2022-09-24T00:39:44;11.17;;;8.07;;
23123;SDS011;11731;48.592;8.858;2022-09-24T00:42:11;8.93;;;6.87;;
23123;SDS011;11731;48.592;8.858;2022-09-24T00:44:45;7.57;;;6.77;;
23123;SDS011;11731;48.592;8.858;2022-09-24T00:47:22;12.10;;;6.47;;
23123;SDS011;11731;48.592;8.858;2022-09-24T00:49:59;7.03;;;6.33;;
23123;SDS011;11731;48.592;8.858;2022-09-24T00:52:32;8.00;;;7.13;;
23123;SDS011;11731;48.592;8.858;2022-09-24T00:55:00;8.67;;;6.20;;
23123;SDS011;11731;48.592;8.858;2022-09-24T00:57:58;10.57;;;6.53;;
23123;SDS011;11731;48.592;8.858;2022-09-24T01:00:18;9.37;;;7.43;;
23123;SDS011;11731;48.592;8.858;2022-09-24T01:02:46;10.07;;;8.00;;
23123;SDS011;11731;48.592;8.858;2022-09-24T01:07:54;11.83;;;7.60;;
23123;SDS011;11731;48.592;8.858;2022-09-24T01:10:26;8.30;;;6.73;;
23123;SDS011;11731;48.592;8.858;2022-09-24T01:13:19;9.43;;;7.20;;
23123;SDS011;11731;48.592;8.858;2022-09-24T01:16:04;8.80;;;6.53;;
23123;SDS011;11731;48.592;8.858;2022-09-24T01:18:37;7.23;;;6.50;;
23123;SDS011;11731;48.592;8.858;2022-09-24T01:21:20;11.27;;;7.57;;
23123;SDS011;11731;48.592;8.858;2022-09-24T01:27:37;8.47;;;6.70;;
23123;SDS011;11731;48.592;8.858;2022-09-24T01:30:18;7.63;;;6.83;;
23123;SDS011;11731;48.592;8.858;2022-09-24T01:32:46;7.73;;;6.20;;
23123;SDS011;11731;48.592;8.858;2022-09-24T01:35:18;6.63;;;5.93;;
23123;SDS011;11731;48.592;8.858;2022-09-24T01:37:49;6.80;;;6.13;;
23123;SDS011;11731;48.592;8.858;2022-09-24T01:40:20;7.67;;;6.07;;
23123;SDS011;11731;48.592;8.858;2022-09-24T01:42:51;7.27;;;6.27;;
23123;SDS011;11731;48.592;8.858;2022-09-24T01:45:21;7.83;;;7.00;;
23123;SDS011;11731;48.592;8.858;2022-09-24T01:47:48;9.30;;;6.60;;
23123;SDS011;11731;48.592;8.858;2022-09-24T01:50:16;7.87;;;7.00;;
23123;SDS011;11731;48.592;8.858;2022-09-24T01:52:45;8.40;;;6.83;;
23123;SDS011;11731;48.592;8.858;2022-09-24T01:55:16;6.87;;;5.87;;
23123;SDS011;11731;48.592;8.858;2022-09-24T01:57:49;5.97;;;5.40;;
23123;SDS011;11731;48.592;8.858;2022-09-24T02:00:21;7.50;;;5.77;;
23123;SDS011;11731;48.592;8.858;2022-09-24T02:02:48;5.90;;;5.30;;
23123;SDS011;11731;48.592;8.858;2022-09-24T02:05:23;6.40;;;5.70;;
23123;SDS011;11731;48.592;8.858;2022-09-24T02:07:57;6.37;;;5.63;;
23123;SDS011;11731;48.592;8.858;2022-09-24T02:10:31;7.07;;;5.07;;
23123;SDS011;11731;48.592;8.858;2022-09-24T02:13:04;7.00;;;5.50;;
23123;SDS011;11731;48.592;8.858;2022-09-24T02:15:39;9.47;;;6.10;;
23123;SDS011;11731;48.592;8.858;2022-09-24T02:18:10;6.03;;;5.43;;
23123;SDS011;11731;48.592;8.858;2022-09-24T02:20:42;12.50;;;5.70;;
23123;SDS011;11731;48.592;8.858;2022-09-24T02:23:10;7.27;;;5.33;;
23123;SDS011;11731;48.592;8.858;2022-09-24T02:25:40;5.83;;;5.27;;
23123;SDS011;11731;48.592;8.858;2022-09-24T02:28:10;6.07;;;5.47;;
23123;SDS011;11731;48.592;8.858;2022-09-24T02:30:40;7.77;;;6.07;;
23123;SDS011;11731;48.592;8.858;2022-09-24T02:33:12;6.23;;;5.63;;
23123;SDS011;11731;48.592;8.858;2022-09-24T02:36:09;8.20;;;5.87;;
23123;SDS011;11731;48.592;8.858;2022-09-24T02:38:37;8.73;;;5.87;;
23123;SDS011;11731;48.592;8.858;2022-09-24T02:41:04;6.90;;;5.63;;
23123;SDS011;11731;48.592;8.858;2022-09-24T02:43:32;6.43;;;5.80;;
23123;SDS011;11731;48.592;8.858;2022-09-24T02:46:01;6.27;;;5.70;;
23123;SDS011;11731;48.592;8.858;2022-09-24T02:48:28;6.90;;;5.50;;
23123;SDS011;11731;48.592;8.858;2022-09-24T02:50:54;8.27;;;6.20;;
23123;SDS011;11731;48.592;8.858;2022-09-24T02:53:21;6.23;;;5.63;;
23123;SDS011;11731;48.592;8.858;2022-09-24T02:55:48;9.90;;;6.30;;
23123;SDS011;11731;48.592;8.858;2022-09-24T02:58:15;8.43;;;6.37;;
23123;SDS011;11731;48.592;8.858;2022-09-24T03:00:42;7.30;;;6.47;;
23123;SDS011;11731;48.592;8.858;2022-09-24T03:03:10;10.40;;;6.90;;
23123;SDS011;11731;48.592;8.858;2022-09-24T03:05:37;7.53;;;6.77;;
23123;SDS011;11731;48.592;8.858;2022-09-24T03:08:03;9.93;;;6.53;;
23123;SDS011;11731;48.592;8.858;2022-09-24T03:10:31;7.83;;;6.87;;
23123;SDS011;11731;48.592;8.858;2022-09-24T03:12:58;7.80;;;6.60;;
23123;SDS011;11731;48.592;8.858;2022-09-24T03:15:25;8.13;;;6.80;;
23123;SDS011;11731;48.592;8.858;2022-09-24T03:17:53;9.47;;;7.37;;
23123;SDS011;11731;48.592;8.858;2022-09-24T03:20:21;9.70;;;7.87;;
23123;SDS011;11731;48.592;8.858;2022-09-24T03:22:49;7.57;;;6.60;;
23123;SDS011;11731;48.592;8.858;2022-09-24T03:25:16;8.20;;;7.27;;
23123;SDS011;11731;48.592;8.858;2022-09-24T03:27:43;8.97;;;6.90;;
23123;SDS011;11731;48.592;8.858;2022-09-24T03:30:11;7.13;;;6.47;;
23123;SDS011;11731;48.592;8.858;2022-09-24T03:32:56;8.20;;;6.80;;
23123;SDS011;11731;48.592;8.858;2022-09-24T03:35:24;8.03;;;6.33;;
23123;SDS011;11731;48.592;8.858;2022-09-24T03:37:51;7.13;;;6.37;;
23123;SDS011;11731;48.592;8.858;2022-09-24T03:40:18;6.23;;;5.63;;
23123;SDS011;11731;48.592;8.858;2022-09-24T03:42:45;8.27;;;5.83;;
23123;SDS011;11731;48.592;8.858;2022-09-24T03:45:12;9.63;;;6.37;;
23123;SDS011;11731;48.592;8.858;2022-09-24T03:47:39;6.70;;;6.07;;
23123;SDS011;11731;48.592;8.858;2022-09-24T03:50:06;7.13;;;6.37;;
23123;SDS011;11731;48.592;8.858;2022-09-24T03:52:37;12.37;;;8.57;;
23123;SDS011;11731;48.592;8.858;2022-09-24T03:55:04;9.83;;;8.70;;
23123;SDS011;11731;48.592;8.858;2022-09-24T03:57:32;9.53;;;6.90;;
23123;SDS011;11731;48.592;8.858;2022-09-24T03:59:58;11.00;;;7.97;;
23123;SDS011;11731;48.592;8.858;2022-09-24T04:02:25;12.20;;;7.63;;
23123;SDS011;11731;48.592;8.858;2022-09-24T04:04:52;9.37;;;8.00;;
23123;SDS011;11731;48.592;8.858;2022-09-24T04:07:19;13.20;;;8.37;;
23123;SDS011;11731;48.592;8.858;2022-09-24T04:09:47;13.40;;;8.23;;
23123;SDS011;11731;48.592;8.858;2022-09-24T04:12:14;10.33;;;8.90;;
23123;SDS011;11731;48.592;8.858;2022-09-24T04:14:41;8.70;;;7.80;;
23123;SDS011;11731;48.592;8.858;2022-09-24T04:17:08;8.90;;;7.90;;
23123;SDS011;11731;48.592;8.858;2022-09-24T04:19:35;10.00;;;7.77;;
23123;SDS011;11731;48.592;8.858;2022-09-24T04:22:04;12.50;;;7.57;;
23123;SDS011;11731;48.592;8.858;2022-09-24T04:24:31;8.00;;;7.20;;
23123;SDS011;11731;48.592;8.858;2022-09-24T04:26:59;8.50;;;7.40;;
23123;SDS011;11731;48.592;8.858;2022-09-24T04:29:26;7.90;;;7.10;;
23123;SDS011;11731;48.592;8.858;2022-09-24T04:31:53;10.47;;;8.53;;
23123;SDS011;11731;48.592;8.858;2022-09-24T04:34:20;9.07;;;8.17;;
23123;SDS011;11731;48.592;8.858;2022-09-24T04:36:47;8.83;;;7.57;;
23123;SDS011;11731;48.592;8.858;2022-09-24T04:39:13;8.87;;;7.73;;
23123;SDS011;11731;48.592;8.858;2022-09-24T04:41:40;9.00;;;7.93;;
23123;SDS011;11731;48.592;8.858;2022-09-24T04:44:09;10.27;;;8.07;;
23123;SDS011;11731;48.592;8.858;2022-09-24T04:46:39;8.40;;;7.60;;
23123;SDS011;11731;48.592;8.858;2022-09-24T04:49:07;8.33;;;7.53;;
23123;SDS011;11731;48.592;8.858;2022-09-24T04:51:34;8.13;;;7.23;;
23123;SDS011;11731;48.592;8.858;2022-09-24T04:54:01;11.23;;;7.97;;
23123;SDS011;11731;48.592;8.858;2022-09-24T04:56:28;10.23;;;7.00;;
23123;SDS011;11731;48.592;8.858;2022-09-24T04:58:56;8.30;;;7.30;;
23123;SDS011;11731;48.592;8.858;2022-09-24T05:01:24;8.47;;;7.43;;
23123;SDS011;11731;48.592;8.858;2022-09-24T05:03:51;8.17;;;7.33;;
23123;SDS011;11731;48.592;8.858;2022-09-24T05:06:18;10.80;;;7.77;;
23123;SDS011;11731;48.592;8.858;2022-09-24T05:08:45;8.20;;;7.10;;
23123;SDS011;11731;48.592;8.858;2022-09-24T05:11:12;10.10;;;7.80;;
23123;SDS011;11731;48.592;8.858;2022-09-24T05:13:39;11.87;;;8.47;;
23123;SDS011;11731;48.592;8.858;2022-09-24T05:16:05;8.53;;;7.73;;
23123;SDS011;11731;48.592;8.858;2022-09-24T05:18:34;9.20;;;8.17;;
23123;SDS011;11731;48.592;8.858;2022-09-24T05:21:01;8.97;;;8.07;;
23123;SDS011;11731;48.592;8.858;2022-09-24T05:23:28;9.27;;;8.03;;
23123;SDS011;11731;48.592;8.858;2022-09-24T05:25:54;11.47;;;7.83;;
23123;SDS011;11731;48.592;8.858;2022-09-24T05:28:39;9.63;;;8.63;;
23123;SDS011;11731;48.592;8.858;2022-09-24T05:31:06;10.43;;;9.37;;
23123;SDS011;11731;48.592;8.858;2022-09-24T05:33:36;10.87;;;8.93;;
23123;SDS011;11731;48.592;8.858;2022-09-24T05:36:03;10.50;;;8.47;;
23123;SDS011;11731;48.592;8.858;2022-09-24T05:38:30;11.43;;;9.00;;
23123;SDS011;11731;48.592;8.858;2022-09-24T05:40:57;9.70;;;8.60;;
23123;SDS011;11731;48.592;8.858;2022-09-24T05:43:24;14.57;;;8.90;;
23123;SDS011;11731;48.592;8.858;2022-09-24T05:45:52;10.60;;;8.80;;
23123;SDS011;11731;48.592;8.858;2022-09-24T05:48:22;9.83;;;8.60;;
23123;SDS011;11731;48.592;8.858;2022-09-24T05:50:51;11.50;;;9.20;;
23123;SDS011;11731;48.592;8.858;2022-09-24T05:53:19;9.43;;;8.53;;
23123;SDS011;11731;48.592;8.858;2022-09-24T05:55:47;9.20;;;8.30;;
23123;SDS011;11731;48.592;8.858;2022-09-24T05:58:14;10.20;;;8.43;;
23123;SDS011;11731;48.592;8.858;2022-09-24T06:00:42;9.73;;;8.63;;
23123;SDS011;11731;48.592;8.858;2022-09-24T06:03:10;8.73;;;7.83;;
23123;SDS011;11731;48.592;8.858;2022-09-24T06:05:38;9.43;;;8.47;;
23123;SDS011;11731;48.592;8.858;2022-09-24T06:08:10;9.70;;;8.70;;
23123;SDS011;11731;48.592;8.858;2022-09-24T06:10:39;10.23;;;9.13;;
23123;SDS011;11731;48.592;8.858;2022-09-24T06:13:06;12.43;;;9.57;;
23123;SDS011;11731;48.592;8.858;2022-09-24T06:15:33;12.03;;;8.83;;
23123;SDS011;11731;48.592;8.858;2022-09-24T06:18:00;10.70;;;8.40;;
23123;SDS011;11731;48.592;8.858;2022-09-24T06:20:27;10.93;;;9.13;;
23123;SDS011;11731;48.592;8.858;2022-09-24T06:22:54;9.30;;;8.40;;
23123;SDS011;11731;48.592;8.858;2022-09-24T06:25:22;11.17;;;7.80;;
23123;SDS011;11731;48.592;8.858;2022-09-24T06:27:52;9.23;;;7.83;;
23123;SDS011;11731;48.592;8.858;2022-09-24T06:30:24;9.50;;;8.43;;
23123;SDS011;11731;48.592;8.858;2022-09-24T06:32:52;9.80;;;8.47;;
23123;SDS011;11731;48.592;8.858;2022-09-24T06:35:19;9.47;;;7.63;;
23123;SDS011;11731;48.592;8.858;2022-09-24T06:37:46;9.73;;;7.90;;
23123;SDS011;11731;48.592;8.858;2022-09-24T06:40:14;13.07;;;8.70;;
23123;SDS011;11731;48.592;8.858;2022-09-24T06:42:42;9.23;;;8.20;;
23123;SDS011;11731;48.592;8.858;2022-09-24T06:45:09;8.60;;;7.70;;
23123;SDS011;11731;48.592;8.858;2022-09-24T06:47:37;8.87;;;7.63;;
23123;SDS011;11731;48.592;8.858;2022-09-24T06:50:04;8.83;;;7.60;;
23123;SDS011;11731;48.592;8.858;2022-09-24T06:52:32;8.53;;;7.73;;
23123;SDS011;11731;48.592;8.858;2022-09-24T06:54:59;11.13;;;7.77;;
23123;SDS011;11731;48.592;8.858;2022-09-24T06:57:26;13.33;;;8.23;;
23123;SDS011;11731;48.592;8.858;2022-09-24T06:59:54;9.40;;;7.73;;
23123;SDS011;11731;48.592;8.858;2022-09-24T07:02:21;9.93;;;7.40;;
23123;SDS011;11731;48.592;8.858;2022-09-24T07:04:48;9.23;;;7.87;;
23123;SDS011;11731;48.592;8.858;2022-09-24T07:07:15;8.33;;;6.83;;
23123;SDS011;11731;48.592;8.858;2022-09-24T07:09:58;12.10;;;7.53;;
23123;SDS011;11731;48.592;8.858;2022-09-24T07:12:26;8.50;;;6.90;;
23123;SDS011;11731;48.592;8.858;2022-09-24T07:14:55;7.53;;;6.73;;
23123;SDS011;11731;48.592;8.858;2022-09-24T07:17:22;8.13;;;7.33;;
23123;SDS011;11731;48.592;8.858;2022-09-24T07:19:49;7.97;;;7.17;;
23123;SDS011;11731;48.592;8.858;2022-09-24T07:22:15;8.37;;;7.50;;
23123;SDS011;11731;48.592;8.858;2022-09-24T07:24:43;9.77;;;7.37;;
23123;SDS011;11731;48.592;8.858;2022-09-24T07:27:10;10.87;;;7.20;;
23123;SDS011;11731;48.592;8.858;2022-09-24T07:29:37;7.97;;;7.17;;
23123;SDS011;11731;48.592;8.858;2022-09-24T07:32:05;9.10;;;8.00;;
23123;SDS011;11731;48.592;8.858;2022-09-24T07:34:32;10.03;;;7.17;;
23123;SDS011;11731;48.592;8.858;2022-09-24T07:36:59;8.53;;;7.67;;
23123;SDS011;11731;48.592;8.858;2022-09-24T07:39:26;11.10;;;8.00;;
23123;SDS011;11731;48.592;8.858;2022-09-24T07:41:53;9.47;;;8.00;;
23123;SDS011;11731;48.592;8.858;2022-09-24T07:44:20;10.83;;;7.73;;
23123;SDS011;11731;48.592;8.858;2022-09-24T07:46:48;8.13;;;7.33;;
23123;SDS011;11731;48.592;8.858;2022-09-24T07:49:16;9.53;;;7.83;;
23123;SDS011;11731;48.592;8.858;2022-09-24T07:51:44;9.73;;;7.57;;
23123;SDS011;11731;48.592;8.858;2022-09-24T07:54:10;10.57;;;7.50;;
23123;SDS011;11731;48.592;8.858;2022-09-24T07:56:37;9.93;;;7.83;;
23123;SDS011;11731;48.592;8.858;2022-09-24T07:59:04;8.07;;;7.13;;
23123;SDS011;11731;48.592;8.858;2022-09-24T08:01:32;9.50;;;7.47;;
23123;SDS011;11731;48.592;8.858;2022-09-24T08:03:59;8.90;;;8.00;;
23123;SDS011;11731;48.592;8.858;2022-09-24T08:06:29;10.40;;;7.70;;
23123;SDS011;11731;48.592;8.858;2022-09-24T08:08:57;11.13;;;8.13;;
23123;SDS011;11731;48.592;8.858;2022-09-24T08:11:24;11.30;;;7.60;;
23123;SDS011;11731;48.592;8.858;2022-09-24T08:13:51;8.77;;;6.97;;
23123;SDS011;11731;48.592;8.858;2022-09-24T08:16:18;13.10;;;8.03;;
23123;SDS011;11731;48.592;8.858;2022-09-24T08:18:46;9.70;;;7.10;;
23123;SDS011;11731;48.592;8.858;2022-09-24T08:21:13;9.73;;;7.83;;
23123;SDS011;11731;48.592;8.858;2022-09-24T08:23:42;11.83;;;8.77;;
23123;SDS011;11731;48.592;8.858;2022-09-24T08:26:09;10.23;;;8.70;;
23123;SDS011;11731;48.592;8.858;2022-09-24T08:28:37;10.70;;;8.17;;
23123;SDS011;11731;48.592;8.858;2022-09-24T08:31:05;10.77;;;8.33;;
23123;SDS011;11731;48.592;8.858;2022-09-24T08:33:34;12.30;;;9.40;;
23123;SDS011;11731;48.592;8.858;2022-09-24T08:36:02;11.80;;;8.80;;
23123;SDS011;11731;48.592;8.858;2022-09-24T08:38:30;10.97;;;8.43;;
23123;SDS011;11731;48.592;8.858;2022-09-24T08:41:00;10.97;;;8.30;;
23123;SDS011;11731;48.592;8.858;2022-09-24T08:43:45;11.07;;;8.73;;
23123;SDS011;11731;48.592;8.858;2022-09-24T08:46:19;13.00;;;11.13;;
23123;SDS011;11731;48.592;8.858;2022-09-24T08:49:09;9.97;;;8.90;;
23123;SDS011;11731;48.592;8.858;2022-09-24T08:51:42;11.57;;;8.20;;
23123;SDS011;11731;48.592;8.858;2022-09-24T08:54:26;12.33;;;9.40;;
23123;SDS011;11731;48.592;8.858;2022-09-24T08:56:57;10.93;;;8.27;;
23123;SDS011;11731;48.592;8.858;2022-09-24T08:59:28;10.37;;;8.43;;
23123;SDS011;11731;48.592;8.858;2022-09-24T09:02:00;10.57;;;9.33;;
23123;SDS011;11731;48.592;8.858;2022-09-24T09:04:44;10.20;;;8.63;;
23123;SDS011;11731;48.592;8.858;2022-09-24T09:07:22;9.43;;;8.47;;
23123;SDS011;11731;48.592;8.858;2022-09-24T09:09:55;10.47;;;8.90;;
23123;SDS011;11731;48.592;8.858;2022-09-24T09:12:29;9.50;;;8.57;;
23123;SDS011;11731;48.592;8.858;2022-09-24T09:15:02;10.50;;;9.40;;
23123;SDS011;11731;48.592;8.858;2022-09-24T09:17:49;11.00;;;8.97;;
23123;SDS011;11731;48.592;8.858;2022-09-24T09:20:20;10.43;;;9.33;;
23123;SDS011;11731;48.592;8.858;2022-09-24T09:22:51;13.67;;;9.97;;
23123;SDS011;11731;48.592;8.858;2022-09-24T09:25:20;11.57;;;9.83;;
23123;SDS011;11731;48.592;8.858;2022-09-24T09:27:51;11.30;;;10.13;;
23123;SDS011;11731;48.592;8.858;2022-09-24T09:30:23;10.63;;;9.53;;
23123;SDS011;11731;48.592;8.858;2022-09-24T09:32:55;13.30;;;10.00;;
23123;SDS011;11731;48.592;8.858;2022-09-24T09:35:37;10.23;;;9.20;;
23123;SDS011;11731;48.592;8.858;2022-09-24T09:38:12;13.13;;;9.97;;
23123;SDS011;11731;48.592;8.858;2022-09-24T09:40:47;11.23;;;10.10;;
23123;SDS011;11731;48.592;8.858;2022-09-24T09:43:20;11.37;;;10.20;;
23123;SDS011;11731;48.592;8.858;2022-09-24T09:45:54;11.47;;;9.70;;
23123;SDS011;11731;48.592;8.858;2022-09-24T09:48:28;17.67;;;10.83;;
23123;SDS011;11731;48.592;8.858;2022-09-24T09:51:05;12.87;;;10.70;;
23123;SDS011;11731;48.592;8.858;2022-09-24T09:53:38;13.43;;;10.93;;
23123;SDS011;11731;48.592;8.858;2022-09-24T09:56:06;11.07;;;9.77;;
23123;SDS011;11731;48.592;8.858;2022-09-24T09:58:35;12.10;;;9.63;;
23123;SDS011;11731;48.592;8.858;2022-09-24T10:01:05;11.73;;;9.23;;
23123;SDS011;11731;48.592;8.858;2022-09-24T10:03:45;11.90;;;10.13;;
23123;SDS011;11731;48.592;8.858;2022-09-24T10:06:22;11.33;;;9.43;;
23123;SDS011;11731;48.592;8.858;2022-09-24T10:08:49;9.57;;;8.60;;
23123;SDS011;11731;48.592;8.858;2022-09-24T10:11:16;10.03;;;8.80;;
23123;SDS011;11731;48.592;8.858;2022-09-24T10:13:45;10.83;;;8.90;;
23123;SDS011;11731;48.592;8.858;2022-09-24T10:16:12;11.70;;;8.60;;
23123;SDS011;11731;48.592;8.858;2022-09-24T10:18:41;13.07;;;9.80;;
23123;SDS011;11731;48.592;8.858;2022-09-24T10:21:13;9.70;;;8.73;;
23123;SDS011;11731;48.592;8.858;2022-09-24T10:23:57;11.40;;;8.77;;
23123;SDS011;11731;48.592;8.858;2022-09-24T10:26:33;9.47;;;8.43;;
23123;SDS011;11731;48.592;8.858;2022-09-24T10:29:03;11.63;;;8.57;;
23123;SDS011;11731;48.592;8.858;2022-09-24T10:31:48;9.07;;;8.13;;
23123;SDS011;11731;48.592;8.858;2022-09-24T10:34:19;9.47;;;7.70;;
23123;SDS011;11731;48.592;8.858;2022-09-24T10:36:51;11.43;;;8.73;;
23123;SDS011;11731;48.592;8.858;2022-09-24T10:39:19;9.17;;;8.27;;
23123;SDS011;11731;48.592;8.858;2022-09-24T10:41:47;9.00;;;8.17;;
23123;SDS011;11731;48.592;8.858;2022-09-24T10:44:17;11.87;;;8.47;;
23123;SDS011;11731;48.592;8.858;2022-09-24T10:46:50;10.70;;;8.80;;
23123;SDS011;11731;48.592;8.858;2022-09-24T10:49:33;8.00;;;7.20;;
23123;SDS011;11731;48.592;8.858;2022-09-24T10:52:15;8.60;;;7.60;;
23123;SDS011;11731;48.592;8.858;2022-09-24T10:58:11;9.50;;;7.43;;
23123;SDS011;11731;48.592;8.858;2022-09-24T11:00:52;8.50;;;7.37;;
23123;SDS011;11731;48.592;8.858;2022-09-24T11:03:30;10.13;;;7.70;;
23123;SDS011;11731;48.592;8.858;2022-09-24T11:06:09;8.03;;;6.90;;
23123;SDS011;11731;48.592;8.858;2022-09-24T11:08:50;9.10;;;6.97;;
23123;SDS011;11731;48.592;8.858;2022-09-24T11:11:29;8.40;;;7.40;;
23123;SDS011;11731;48.592;8.858;2022-09-24T11:14:07;8.50;;;7.60;;
23123;SDS011;11731;48.592;8.858;2022-09-24T11:16:48;7.90;;;7.00;;
23123;SDS011;11731;48.592;8.858;2022-09-24T11:19:34;8.63;;;7.10;;
23123;SDS011;11731;48.592;8.858;2022-09-24T11:22:34;9.53;;;7.60;;
23123;SDS011;11731;48.592;8.858;2022-09-24T11:25:16;7.83;;;6.97;;
23123;SDS011;11731;48.592;8.858;2022-09-24T11:31:16;8.37;;;7.53;;
23123;SDS011;11731;48.592;8.858;2022-09-24T11:43:31;6.57;;;5.20;;
23123;SDS011;11731;48.592;8.858;2022-09-24T11:46:21;7.47;;;4.87;;
23123;SDS011;11731;48.592;8.858;2022-09-24T11:49:07;4.77;;;3.57;;
23123;SDS011;11731;48.592;8.858;2022-09-24T11:51:51;4.90;;;2.97;;
23123;SDS011;11731;48.592;8.858;2022-09-24T11:54:23;2.60;;;2.40;;
23123;SDS011;11731;48.592;8.858;2022-09-24T11:56:57;2.50;;;2.30;;
23123;SDS011;11731;48.592;8.858;2022-09-24T11:59:33;2.40;;;2.20;;
23123;SDS011;11731;48.592;8.858;2022-09-24T12:05:16;2.40;;;2.20;;
23123;SDS011;11731;48.592;8.858;2022-09-24T12:07:50;3.07;;;2.07;;
23123;SDS011;11731;48.592;8.858;2022-09-24T12:10:25;4.00;;;2.60;;
23123;SDS011;11731;48.592;8.858;2022-09-24T12:13:01;3.53;;;2.77;;
23123;SDS011;11731;48.592;8.858;2022-09-24T12:15:40;4.83;;;2.70;;
23123;SDS011;11731;48.592;8.858;2022-09-24T12:18:13;3.40;;;2.70;;
23123;SDS011;11731;48.592;8.858;2022-09-24T12:20:45;3.67;;;3.10;;
23123;SDS011;11731;48.592;8.858;2022-09-24T12:23:15;4.73;;;3.57;;
23123;SDS011;11731;48.592;8.858;2022-09-24T12:25:45;3.67;;;3.37;;
23123;SDS011;11731;48.592;8.858;2022-09-24T12:28:17;4.23;;;3.03;;
23123;SDS011;11731;48.592;8.858;2022-09-24T12:30:59;4.10;;;3.20;;
23123;SDS011;11731;48.592;8.858;2022-09-24T12:33:51;3.30;;;3.00;;
23123;SDS011;11731;48.592;8.858;2022-09-24T12:36:30;4.43;;;2.93;;
23123;SDS011;11731;48.592;8.858;2022-09-24T12:39:18;2.87;;;2.53;;
23123;SDS011;11731;48.592;8.858;2022-09-24T12:41:47;4.00;;;2.60;;
23123;SDS011;11731;48.592;8.858;2022-09-24T12:44:22;3.73;;;2.60;;
23123;SDS011;11731;48.592;8.858;2022-09-24T12:46:57;6.37;;;3.23;;
23123;SDS011;11731;48.592;8.858;2022-09-24T12:49:27;3.00;;;2.80;;
23123;SDS011;11731;48.592;8.858;2022-09-24T12:52:03;4.00;;;3.50;;
23123;SDS011;11731;48.592;8.858;2022-09-24T12:55:16;4.97;;;3.50;;
23123;SDS011;11731;48.592;8.858;2022-09-24T12:57:48;3.70;;;3.30;;
23123;SDS011;11731;48.592;8.858;2022-09-24T13:00:35;6.10;;;3.60;;
23123;SDS011;11731;48.592;8.858;2022-09-24T13:03:04;6.00;;;3.53;;
23123;SDS011;11731;48.592;8.858;2022-09-24T13:05:32;3.97;;;3.43;;
23123;SDS011;11731;48.592;8.858;2022-09-24T13:08:22;5.10;;;3.60;;
23123;SDS011;11731;48.592;8.858;2022-09-24T13:10:54;4.13;;;3.60;;
23123;SDS011;11731;48.592;8.858;2022-09-24T13:13:23;4.00;;;3.23;;
23123;SDS011;11731;48.592;8.858;2022-09-24T13:15:58;4.10;;;3.70;;
23123;SDS011;11731;48.592;8.858;2022-09-24T13:18:27;5.97;;;3.30;;
23123;SDS011;11731;48.592;8.858;2022-09-24T13:20:59;4.17;;;3.40;;
23123;SDS011;11731;48.592;8.858;2022-09-24T13:23:30;3.80;;;3.40;;
23123;SDS011;11731;48.592;8.858;2022-09-24T13:26:08;3.87;;;3.13;;
23123;SDS011;11731;48.592;8.858;2022-09-24T13:33:59;4.50;;;3.10;;
23123;SDS011;11731;48.592;8.858;2022-09-24T13:36:32;5.80;;;2.70;;
23123;SDS011;11731;48.592;8.858;2022-09-24T13:39:05;4.33;;;2.80;;
23123;SDS011;11731;48.592;8.858;2022-09-24T13:41:40;4.20;;;3.10;;
23123;SDS011;11731;48.592;8.858;2022-09-24T13:44:14;2.93;;;2.63;;
23123;SDS011;11731;48.592;8.858;2022-09-24T13:46:55;3.20;;;2.90;;
23123;SDS011;11731;48.592;8.858;2022-09-24T13:49:26;3.80;;;3.30;;
23123;SDS011;11731;48.592;8.858;2022-09-24T13:51:58;4.60;;;4.00;;
23123;SDS011;11731;48.592;8.858;2022-09-24T13:54:33;3.03;;;2.63;;
23123;SDS011;11731;48.592;8.858;2022-09-24T13:57:08;4.43;;;3.17;;
23123;SDS011;11731;48.592;8.858;2022-09-24T13:59:38;3.00;;;2.70;;
23123;SDS011;11731;48.592;8.858;2022-09-24T14:07:41;3.63;;;3.20;;
23123;SDS011;11731;48.592;8.858;2022-09-24T14:10:11;3.70;;;3.33;;
23123;SDS011;11731;48.592;8.858;2022-09-24T14:12:39;4.30;;;3.00;;
23123;SDS011;11731;48.592;8.858;2022-09-24T14:15:11;3.70;;;3.37;;
23123;SDS011;11731;48.592;8.858;2022-09-24T14:18:04;4.03;;;3.20;;
23123;SDS011;11731;48.592;8.858;2022-09-24T14:20:33;3.47;;;3.17;;
23123;SDS011;11731;48.592;8.858;2022-09-24T14:23:01;3.20;;;2.90;;
23123;SDS011;11731;48.592;8.858;2022-09-24T14:25:30;4.67;;;3.10;;
23123;SDS011;11731;48.592;8.858;2022-09-24T14:27:59;3.80;;;3.00;;
23123;SDS011;11731;48.592;8.858;2022-09-24T14:30:28;3.13;;;2.83;;
23123;SDS011;11731;48.592;8.858;2022-09-24T14:33:10;3.53;;;3.23;;
23123;SDS011;11731;48.592;8.858;2022-09-24T14:35:44;3.87;;;3.20;;
23123;SDS011;11731;48.592;8.858;2022-09-24T14:38:14;3.60;;;3.27;;
23123;SDS011;11731;48.592;8.858;2022-09-24T14:40:45;3.97;;;3.60;;
23123;SDS011;11731;48.592;8.858;2022-09-24T14:43:19;3.70;;;3.33;;
23123;SDS011;11731;48.592;8.858;2022-09-24T14:45:49;4.70;;;3.17;;
23123;SDS011;11731;48.592;8.858;2022-09-24T14:48:18;4.47;;;3.17;;
23123;SDS011;11731;48.592;8.858;2022-09-24T14:53:55;3.30;;;2.80;;
23123;SDS011;11731;48.592;8.858;2022-09-24T14:56:25;4.60;;;3.10;;
23123;SDS011;11731;48.592;8.858;2022-09-24T14:58:54;3.13;;;2.83;;
23123;SDS011;11731;48.592;8.858;2022-09-24T15:01:22;4.17;;;3.30;;
23123;SDS011;11731;48.592;8.858;2022-09-24T15:03:55;5.50;;;3.60;;
23123;SDS011;11731;48.592;8.858;2022-09-24T15:12:08;4.43;;;3.40;;
23123;SDS011;11731;48.592;8.858;2022-09-24T15:14:51;3.37;;;3.07;;
23123;SDS011;11731;48.592;8.858;2022-09-24T15:17:20;3.43;;;2.90;;
23123;SDS011;11731;48.592;8.858;2022-09-24T15:19:51;3.40;;;3.10;;
23123;SDS011;11731;48.592;8.858;2022-09-24T15:22:25;4.00;;;3.27;;
23123;SDS011;11731;48.592;8.858;2022-09-24T15:26:08;3.37;;;3.07;;
23123;SDS011;11731;48.592;8.858;2022-09-24T15:28:10;5.67;;;3.30;;
23123;SDS011;11731;48.592;8.858;2022-09-24T15:30:38;3.80;;;3.30;;
23123;SDS011;11731;48.592;8.858;2022-09-24T15:33:08;4.57;;;3.53;;
23123;SDS011;11731;48.592;8.858;2022-09-24T15:35:37;3.10;;;2.80;;
23123;SDS011;11731;48.592;8.858;2022-09-24T15:41:17;4.30;;;3.30;;
23123;SDS011;11731;48.592;8.858;2022-09-24T15:43:44;4.87;;;3.30;;
23123;SDS011;11731;48.592;8.858;2022-09-24T15:46:28;3.43;;;3.13;;
23123;SDS011;11731;48.592;8.858;2022-09-24T15:48:54;4.70;;;3.17;;
23123;SDS011;11731;48.592;8.858;2022-09-24T15:51:24;3.67;;;3.17;;
23123;SDS011;11731;48.592;8.858;2022-09-24T15:54:10;4.67;;;3.37;;
23123;SDS011;11731;48.592;8.858;2022-09-24T15:56:50;4.60;;;2.93;;
23123;SDS011;11731;48.592;8.858;2022-09-24T15:59:18;4.07;;;3.00;;
23123;SDS011;11731;48.592;8.858;2022-09-24T16:01:50;3.80;;;3.40;;
23123;SDS011;11731;48.592;8.858;2022-09-24T16:04:54;3.47;;;3.17;;